Tarata, Bolivia
Current Conditions -  °F | °C
As of 2:00 PM on Sunday 23 Nov 2014 (Local Time) from SLCB Reporting Station
Broken Clouds Broken Clouds  
Wind Chill: 72°   Ceiling: 20000
Heat Index: 72°   Visibility: 6mi
Dew Point: 45°   Wind: 0mph
Humidity: 38%   Direction: NA
Pressure: 30.18"   Gusts: NA
Location:  17.62°S, 66.03°W
Report Text: SLCB 231800Z 00000KT 9999 FEW027 BKN200 22/07 Q1022
Loading
Personal Weather Stations






























Interactive Weather Map New forecast layout! Learn more

10-Day Weather Forecast

Advertisements
Track Severe Weather on mobile